Flight Track Log - Related Links

Times and Time Zones

All times are in EST time to prevent confusion due to time zone crossing. See the SWA923 flight status page for this flight to view local times or setup timezone preferences in your user account.

Time Position Orientation Groundspeed Altitude Reporting Facility
EST Latitude Longitude Course Direction KTS MPH feet Rate Location/Type
Mon 11:30:08 AM 39.8833 -104.5667 323° Northwest 193 222 7,000  Level Denver TRACON
Mon 11:31:08 AM 39.9000 -104.4833 75° East 241 277 9,200 2,211 Climbing Denver TRACON
Mon 11:32:02 AM 39.9333 -104.4167 57° Northeast 276 318 11,200 2,526 Climbing Denver TRACON
Mon 11:33:02 AM 40.0000 -104.3833 21° North 263 303 14,000 2,429 Climbing Denver TRACON
Mon 11:34:08 AM 40.0833 -104.4500 329° Northwest 313 360 16,300 2,417 Climbing Denver TRACON
Mon 11:35:00 AM 40.2347 -105.3333 323° Northwest  Level Estimated
Mon 11:35:21 AM 40.1650 -104.5328 322° Northwest 328 377 19,600  Level Denver Center
Mon 11:36:23 AM 40.2483 -104.6067 326° Northwest 340 391 22,100 2,208 Climbing Denver Center
Mon 11:37:26 AM 40.3283 -104.6783 326° Northwest 359 413 24,200 1,968 Climbing Denver Center
Mon 11:38:28 AM 40.4114 -104.7525 326° Northwest 365 420 26,200 1,839 Climbing Denver Center
Mon 11:39:30 AM 40.4975 -104.8292 326° Northwest 374 430 28,000 2,274 Climbing Denver Center
Mon 11:40:32 AM 40.6006 -104.9222 326° Northwest 374 430 30,900 2,468 Climbing Denver Center
Mon 11:41:34 AM 40.6833 -104.9978 325° Northwest 364 419 33,100 1,500 Climbing Denver Center
Mon 11:42:36 AM 40.7636 -105.0667 327° Northwest 345 397 34,000 435 Climbing Denver Center
Mon 11:43:38 AM 40.8381 -105.1500 320° Northwest 348 400 34,000  Level Denver Center
Mon 11:44:40 AM 40.9131 -105.2342 320° Northwest 353 406 34,000 532 Level Denver Center
Mon 11:45:42 AM 41.0033 -105.3375 319° Northwest 358 412 35,100 1,065 Climbing Denver Center
Mon 11:46:44 AM 41.0764 -105.4203 320° Northwest 361 415 36,200 1,065 Climbing Denver Center
Mon 11:47:46 AM 41.1497 -105.5036 319° Northwest 361 415 37,300 864 Climbing Denver Center
Mon 11:48:49 AM 41.2347 -105.6017 319° Northwest 362 417 38,000 336 Climbing Denver Center
Mon 11:49:51 AM 41.3069 -105.6853 319° Northwest 360 414 38,000  Level Denver Center
Mon 11:50:53 AM 41.3769 -105.8053 308° West 372 428 38,000  Level Denver Center
Mon 11:51:55 AM 41.4278 -105.9150 302° West 368 423 38,000  Level Denver Center
Mon 11:52:57 AM 41.4894 -106.0439 303° West 368 423 38,000  Level Denver Center
Mon 11:53:59 AM 41.5397 -106.1567 301° West 369 425 38,000  Level Denver Center
Mon 11:55:01 AM 41.5994 -106.2894 301° West 373 429 38,000  Level Denver Center
Mon 11:56:03 AM 41.6506 -106.4031 301° West 373 429 38,000  Level Denver Center
Mon 11:57:05 AM 41.7075 -106.5333 300° West 372 428 38,000  Level Denver Center
Mon 11:58:07 AM 41.7581 -106.6467 301° West 371 427 38,000  Level Denver Center
Mon 11:59:09 AM 41.8167 -106.7797 301° West 372 428 38,000  Level Denver Center
Mon 12:00:11 PM 41.8667 -106.8942 300° West 371 427 38,000  Level Denver Center
Mon 12:01:14 PM 41.9261 -107.0283 301° West 375 432 38,000  Level Denver Center
Mon 12:02:16 PM 41.9764 -107.1444 300° West 377 434 38,000  Level Denver Center
Mon 12:03:18 PM 42.0353 -107.2806 300° West 378 435 38,000  Level Denver Center
Mon 12:04:19 PM 42.0769 -107.3767 300° West 376 433 38,000  Level Denver Center
Mon 12:05:22 PM 42.1422 -107.5317 300° West 375 432 38,000  Level Denver Center
Mon 12:06:24 PM 42.1917 -107.6464 300° West 372 428 38,000  Level Denver Center
Mon 12:07:02 PM 42.2250 -107.7239 300° West 373 429 38,000  Level Salt Lake Center
Mon 12:08:04 PM 42.2833 -107.8622 300° West 379 436 38,000  Level Salt Lake Center
Mon 12:09:06 PM 42.3342 -107.9806 300° West 381 438 38,000  Level Salt Lake Center
Mon 12:10:07 PM 42.3925 -108.1211 299° West 386 444 38,000  Level Salt Lake Center
Mon 12:11:09 PM 42.4436 -108.2442 299° West 391 450 38,000  Level Salt Lake Center
Mon 12:12:11 PM 42.4944 -108.3642 300° West 388 447 38,000  Level Salt Lake Center
Mon 12:13:12 PM 42.5539 -108.5078 299° West 390 449 38,000  Level Salt Lake Center
Mon 12:14:14 PM 42.6044 -108.6311 299° West 391 450 38,000  Level Salt Lake Center
Mon 12:15:16 PM 42.6633 -108.7736 299° West 390 449 38,000  Level Salt Lake Center
Mon 12:16:17 PM 42.7142 -108.8972 299° West 391 450 38,000  Level Salt Lake Center
Mon 12:17:19 PM 42.7731 -109.0425 299° West 393 452 38,000  Level Salt Lake Center
Mon 12:18:21 PM 42.8225 -109.1653 299° West 389 448 38,000  Level Salt Lake Center
Mon 12:19:23 PM 42.8806 -109.3075 299° West 386 444 38,000  Level Salt Lake Center
Mon 12:20:24 PM 42.9283 -109.4267 299° West 380 437 38,000  Level Salt Lake Center
Mon 12:21:26 PM 42.9856 -109.5689 299° West 385 443 38,000  Level Salt Lake Center
Mon 12:22:28 PM 43.0358 -109.6972 298° West 385 443 38,000  Level Salt Lake Center
Mon 12:23:29 PM 43.0878 -109.8244 299° West 383 441 38,000  Level Salt Lake Center
Mon 12:24:31 PM 43.1417 -109.9631 298° West 385 443 38,000  Level Salt Lake Center
Mon 12:25:33 PM 43.1897 -110.0872 298° West 386 444 38,000  Level Salt Lake Center
Mon 12:26:34 PM 43.2444 -110.2275 298° West 386 444 38,000  Level Salt Lake Center
Mon 12:27:36 PM 43.2947 -110.3478 300° West 382 440 38,000  Level Salt Lake Center
Mon 12:28:38 PM 43.3508 -110.4956 298° West 389 448 38,000  Level Salt Lake Center
Mon 12:29:39 PM 43.4028 -110.6286 298° West 395 455 38,000  Level Salt Lake Center
Mon 12:30:41 PM 43.4519 -110.7564 298° West 394 453 38,000  Level Salt Lake Center
Mon 12:31:43 PM 43.5103 -110.9058 298° West 396 456 38,000  Level Salt Lake Center
Mon 12:32:45 PM 43.5583 -111.0369 297° West 400 460 38,000  Level Salt Lake Center
Mon 12:33:46 PM 43.6081 -111.1661 298° West 399 459 38,000  Level Salt Lake Center
Mon 12:34:48 PM 43.6650 -111.3161 298° West 394 453 38,000  Level Salt Lake Center
Mon 12:35:50 PM 43.7122 -111.4442 297° West 392 451 38,000  Level Salt Lake Center
Mon 12:36:51 PM 43.7689 -111.5922 298° West 390 449 38,000  Level Salt Lake Center
Mon 12:37:53 PM 43.8178 -111.7219 298° West 394 453 38,000  Level Salt Lake Center
Mon 12:38:55 PM 43.8636 -111.8497 296° West 390 449 38,000  Level Salt Lake Center
Mon 12:39:56 PM 43.9178 -111.9983 297° West 387 445 38,000  Level Salt Lake Center
Mon 12:40:58 PM 43.9642 -112.1264 297° West 387 445 38,000  Level Salt Lake Center
Mon 12:42:00 PM 44.0200 -112.2761 297° West 390 449 38,000  Level Salt Lake Center
Mon 12:43:02 PM 44.0661 -112.4053 296° West 389 448 38,000  Level Salt Lake Center
Mon 12:44:03 PM 44.1219 -112.5597 297° West 397 457 38,000  Level Salt Lake Center
Mon 12:45:05 PM 44.1686 -112.6908 296° West 396 456 38,000  Level Salt Lake Center
Mon 12:46:06 PM 44.2167 -112.8228 297° West 398 458 38,000  Level Salt Lake Center
Mon 12:47:08 PM 44.2717 -112.9778 296° West 399 459 38,000 339 Level Salt Lake Center
Mon 12:48:10 PM 44.3206 -113.1094 297° West 399 459 38,700 927 Climbing Salt Lake Center
Mon 12:49:11 PM 44.3750 -113.2650 296° West 399 459 39,900 634 Climbing Salt Lake Center
Mon 12:50:13 PM 44.4219 -113.3947 297° West 395 455 40,000 48 Climbing Salt Lake Center
Mon 12:51:15 PM 44.4661 -113.5264 295° West 392 451 40,000  Level Salt Lake Center
Mon 12:52:16 PM 44.5181 -113.6783 296° West 389 448 40,000  Level Salt Lake Center
Mon 12:53:18 PM 44.5636 -113.8086 296° West 389 448 40,000  Level Salt Lake Center
Mon 12:54:19 PM 44.6089 -113.9411 296° West 386 444 40,000  Level Salt Lake Center
Mon 12:55:21 PM 44.6628 -114.1050 295° West 386 444 40,000  Level Salt Lake Center
Mon 12:56:23 PM 44.7100 -114.2411 296° West 389 448 40,000  Level Salt Lake Center
Mon 12:57:24 PM 44.7553 -114.3775 295° West 388 447 40,000  Level Salt Lake Center
Mon 12:58:26 PM 44.8022 -114.5161 296° West 392 451 40,000  Level Salt Lake Center
Mon 12:59:28 PM 44.8481 -114.6561 295° West 395 455 40,000  Level Salt Lake Center
Mon 01:00:31 PM 44.8950 -114.7969 295° West 397 457 40,000  Level Salt Lake Center
Mon 01:01:33 PM 44.9503 -114.9642 295° West 395 455 40,000  Level Salt Lake Center
Mon 01:02:34 PM 44.9961 -115.1067 294° West 398 458 40,000  Level Salt Lake Center
Mon 01:03:36 PM 45.0425 -115.2494 295° West 400 460 40,000  Level Salt Lake Center
Mon 01:04:38 PM 45.0886 -115.3917 295° West 401 461 40,000  Level Salt Lake Center
Mon 01:05:39 PM 45.1344 -115.5328 295° West 399 459 40,000  Level Salt Lake Center
Mon 01:06:41 PM 45.1794 -115.6744 294° West 397 457 40,000  Level Salt Lake Center
Mon 01:07:19 PM 45.2078 -115.7614 295° West 397 457 40,000  Level Seattle Center
Mon 01:08:19 PM 45.2617 -115.9308 294° West 396 456 40,000  Level Seattle Center
Mon 01:09:20 PM 45.3058 -116.0742 294° West 398 458 40,000  Level Seattle Center
Mon 01:10:21 PM 45.3500 -116.2147 294° West 395 455 40,000  Level Seattle Center
Mon 01:11:22 PM 45.3942 -116.3567 294° West 394 453 40,000  Level Seattle Center
Mon 01:12:23 PM 45.4378 -116.4969 294° West 391 450 40,000  Level Seattle Center
Mon 01:13:23 PM 45.4819 -116.6408 294° West 395 455 40,000  Level Seattle Center
Mon 01:14:24 PM 45.5272 -116.7856 294° West 399 459 40,000  Level Seattle Center
Mon 01:14:54 PM 45.5456 -116.8436 294° West 401 461 40,000  Level Salt Lake Center
Mon 01:15:25 PM 45.5717 -116.9325 293° West 404 465 40,000  Level Seattle Center
Mon 01:16:26 PM 45.6156 -117.0794 293° West 404 465 40,000  Level Seattle Center
Mon 01:17:27 PM 45.6603 -117.2267 294° West 404 465 40,000  Level Seattle Center
Mon 01:18:28 PM 45.7075 -117.3797 294° West 402 463 40,000  Level Seattle Center
Mon 01:19:28 PM 45.7514 -117.5261 293° West 401 461 40,000  Level Seattle Center
Mon 01:20:29 PM 45.7947 -117.6706 293° West 396 456 40,000  Level Seattle Center
Mon 01:21:30 PM 45.8369 -117.8183 292° West 400 460 40,000  Level Seattle Center
Mon 01:22:31 PM 45.8803 -117.9642 293° West 399 459 40,000  Level Seattle Center
Mon 01:23:32 PM 45.9236 -118.1128 293° West 403 464 40,000  Level Seattle Center
Mon 01:24:32 PM 45.9664 -118.2600 293° West 400 460 40,000  Level Seattle Center
Mon 01:25:33 PM 46.0097 -118.4111 292° West 407 468 40,000  Level Seattle Center
Mon 01:26:34 PM 46.0586 -118.5828 292° West 403 464 40,000  Level Seattle Center
Mon 01:27:35 PM 46.1011 -118.7328 292° West 405 466 40,000  Level Seattle Center
Mon 01:28:36 PM 46.1431 -118.8822 292° West 403 464 40,000  Level Seattle Center
Mon 01:29:36 PM 46.1850 -119.0319 292° West 404 465 40,000  Level Seattle Center
Mon 01:30:37 PM 46.2267 -119.1808 292° West 403 464 40,000  Level Seattle Center
Mon 01:31:38 PM 46.2683 -119.3317 292° West 406 467 40,000  Level Seattle Center
Mon 01:32:39 PM 46.3097 -119.4803 292° West 404 465 40,000  Level Seattle Center
Mon 01:33:39 PM 46.3497 -119.6292 291° West 400 460 40,000  Level Seattle Center
Mon 01:34:40 PM 46.3914 -119.7781 292° West 400 460 40,000  Level Seattle Center
Mon 01:35:41 PM 46.4317 -119.9294 291° West 403 464 40,000  Level Seattle Center
Mon 01:36:42 PM 46.4719 -120.0811 291° West 404 465 40,000 -197 Level Seattle Center
Mon 01:37:43 PM 46.5214 -120.2650 291° West 409 471 39,600 -645 Descending Seattle Center
Mon 01:38:43 PM 46.5631 -120.4211 291° West 415 478 38,700 -1,636 Descending Seattle Center
Mon 01:39:44 PM 46.6250 -120.5636 302° West 418 481 36,300 -2,754 Descending Seattle Center
Mon 01:40:45 PM 46.6933 -120.7028 306° West 422 486 33,100 -2,803 Descending Seattle Center
Mon 01:41:46 PM 46.7583 -120.8447 304° West 423 487 30,600 -2,311 Descending Seattle Center
Mon 01:42:47 PM 46.8219 -120.9769 305° West 404 465 28,400 -2,231 Descending Seattle Center
Mon 01:43:47 PM 46.8831 -121.1086 304° West 396 456 26,100 -2,231 Descending Seattle Center
Mon 01:44:48 PM 46.9422 -121.2378 304° West 386 444 23,900 -2,115 Descending Seattle Center
Mon 01:45:49 PM 47.0011 -121.3603 305° West 375 432 21,800 -2,215 Descending Seattle Center
Mon 01:45:53 PM 47.0111 -121.3797 307° West 369 425 21,500 -2,164 Descending Seattle Center
Mon 01:46:50 PM 47.0619 -121.4947 303° West 367 422 19,600 -1,900 Descending Seattle Center
Mon 01:46:53 PM 47.0678 -121.5011 323° Northwest 362 417 19,600 -1,279 Level Seattle Center
Mon 01:47:51 PM 47.1158 -121.6111 303° West 352 405 18,300 -1,522 Descending Seattle Center
Mon 01:48:00 PM 47.1300 -121.6361 310° West 342 394 17,900 -2,000 Descending Seattle Center
Mon 01:48:51 PM 47.1736 -121.7333 303° West 350 403 16,300 -1,869 Descending Seattle Center
Mon 01:49:01 PM 47.1822 -121.7506 306° West 337 388 16,000 -1,279 Descending Seattle Center
Mon 01:49:52 PM 47.2256 -121.8472 303° West 338 389 15,000 -984 Descending Seattle Center
Mon 01:50:02 PM 47.2342 -121.8653 305° West 339 390 15,000 -1,672 Level Seattle Center
Mon 01:50:53 PM 47.2772 -121.9592 304° West 334 384 13,300 -2,066 Descending Seattle Center
Mon 01:51:03 PM 47.2856 -121.9775 304° West 330 380 12,900 -1,886 Descending Seattle Center
Mon 01:52:03 PM 47.3381 -122.0956 303° West 321 369 11,100 -1,500 Descending Seattle Center
Mon 01:52:55 PM 47.3808 -122.1783 307° West 310 357 10,100 -1,082 Descending Seattle Center
Mon 01:53:04 PM 47.3925 -122.1864 335° Northwest 299 344 10,000 -1,500 Descending Seattle Center
Mon 01:53:55 PM 47.4619 -122.1886 359° North 301 346 8,600 -1,672 Descending Seattle Center
Mon 01:54:05 PM 47.4750 -122.1867 North 299 344 8,300 -1,770 Descending Seattle Center
Mon 01:54:56 PM 47.5419 -122.1864 360° North 291 335 6,800 -1,869 Descending Seattle Center
Mon 01:55:06 PM 47.5547 -122.1853 North 293 337 6,400 -787 Descending Seattle Center
Mon 01:55:57 PM 47.6258 -122.1853 360° North 278 320 6,000 -358 Descending Seattle Center
Mon 01:56:13 PM 47.6436 -122.1853 360° North 258 297 6,000 -254 Level Seattle Center
Mon 01:57:08 PM 47.7028 -122.1819 North 226 260 5,700 -623 Descending Seattle Center
Mon 01:57:59 PM 47.7464 -122.2033 342° North 227 261 4,900 -1,100 Descending Seattle Center
Mon 01:58:08 PM 47.7492 -122.2153 289° West 199 229 4,600 -885 Descending Seattle Center
Mon 01:59:00 PM 47.7400 -122.2711 256° West 168 193 4,000 -655 Descending Seattle Center
Mon 01:59:03 PM 47.7356 -122.2758 216° Southwest 171 197 4,000  Level Seattle Center
Mon 02:00:10 PM 47.6928 -122.3092 208° Southwest 142 163 4,000  Level Seattle Center
Mon 02:01:01 PM 47.6586 -122.3181 190° South 146 168 4,000  Level Seattle Center
Mon 02:01:11 PM 47.6508 -122.3194 187° South 144 166 4,000 -590 Level Seattle Center
Mon 02:02:02 PM 47.6167 -122.3167 177° South 153 176 3,400 -689 Descending Seattle Center
Mon 02:02:12 PM 47.6081 -122.3167 180° South 151 174 3,300 -787 Descending Seattle Center
Mon 02:03:03 PM 47.5722 -122.3169 180° South 161 185 2,600 -800 Descending Seattle Center
Mon 02:03:12 PM 47.5658 -122.3169 180° South 158 182 2,500 -787 Descending Seattle Center
Mon 02:04:04 PM 47.5292 -122.3178 181° South 156 180 1,800 -806 Descending Seattle Center
Mon 02:04:19 PM 47.5197 -122.3194 187° South 152 175 1,600 -689 Descending Seattle Center
Mon 02:05:05 PM 47.4928 -122.3175 177° South 133 153 1,100 -689 Descending Seattle Center
Mon 02:05:20 PM 47.4814 -122.3175 180° South 126 145 900 -689 Descending Seattle Center
Mon 02:06:06 PM 47.4592 -122.3183 181° South 130 150 400 -652 Descending Seattle Center
Mon 02:08:00 PM 47.4499 -122.3118 306° West  Level Estimated

Login

Don't have an account? Register now (free) for customized features, flight alerts, and more!